X  Luk Metar data     EKYT Aalborg Airport
Temperatur
2°C Temperatur
0°C Dugpunkt
87% Fugtighed



Vind
4 M/S
10 MPT
16 KM/T
9 KNOB



70°
ØNØ
Nuværende forhold

Overskyet Overskyet
Tryk 1028.92 (hPa) - 30.38 (inHg)
Sigt 6.2 (mil) - 10 (km)
Lufthavn
Lufthavnskode EKYT

Lokation: Aalborg Airport
Afstand: 54 (km)

Metar:
EKYT 041750Z AUTO 07009KT 9999 OVC022/// 02/M00 Q1029

Tid: 04-12-2022 18:50 CET